Schedule Details


Flight Number: CTN304
Departure: Kastela (LDSP) at 18:30
Arrival: Eleftherios Venizelos Intl (LGAV) at 21:05
Route: SiPAL UL607 NERRA L607 DBK UL607 PIKOS L607 XORKI

Weather Information
LDSP 112230Z AUTO 33006KT CAVOK 18/14 Q1009
LGAV 112220Z VRB02KT CAVOK 14/M02 Q1013 NOSIG
Schedule Frequency

Route Map